Forest Hill, Virginia
Current Conditions -  °F | °C
As of 3:54 PM on Tuesday 21 Oct 2014 (Local Time) from KRIC Reporting Station
Broken Clouds Broken Clouds  
Wind Chill: 72°   Ceiling: 8000
Heat Index: 72°   Visibility: 10mi
Dew Point: 44°   Wind: 7mph
Humidity: 37%   Direction: 260°W
Pressure: 29.79"   Gusts: NA
Location:  37.5175°N, 77.5123°W
Report Text: KRIC 211954Z 26006KT 10SM SCT060 BKN080 BKN250 22/07 A2979 RMK AO2 SLP092 T02220067
Loading
Personal Weather Stations






























Interactive Weather Map
Tropical Storm Tracking
New forecast layout! Learn more

10-Day Weather Forecast

Advertisements
Track Severe Weather on mobile